createdAt,value
2022-08-25T00:01:32.216Z,307.27
2022-08-25T00:04:02.123Z,308.35
2022-08-25T00:06:30.516Z,304.48
2022-08-25T00:08:59.709Z,306.33
2022-08-25T00:11:30.053Z,302.23
2022-08-25T00:14:02.175Z,307.42
2022-08-25T00:16:31.461Z,305.98
2022-08-25T00:19:03.386Z,303.27
2022-08-25T00:21:31.792Z,308.42
2022-08-25T00:23:59.745Z,302.43
2022-08-25T00:26:27.613Z,307.10
2022-08-25T00:28:57.463Z,306.03
2022-08-25T00:31:37.829Z,307.27
2022-08-25T00:34:09.627Z,308.67
2022-08-25T00:36:36.482Z,308.20
2022-08-25T00:39:05.307Z,309.40
2022-08-25T00:41:32.334Z,306.67
2022-08-25T00:44:01.940Z,309.27
2022-08-25T00:46:40.646Z,306.65
2022-08-25T00:49:24.599Z,303.80
2022-08-25T00:52:18.309Z,306.48
2022-08-25T00:54:54.228Z,306.35
2022-08-25T00:57:34.402Z,305.10
2022-08-25T01:00:06.702Z,305.60
2022-08-25T01:02:33.381Z,306.57
2022-08-25T01:05:00.013Z,305.73
2022-08-25T01:07:26.691Z,309.10
2022-08-25T01:09:53.871Z,308.77
2022-08-25T01:12:21.601Z,308.95
2022-08-25T01:14:49.929Z,309.77
2022-08-25T01:17:17.031Z,310.27
2022-08-25T01:19:44.099Z,315.95
2022-08-25T01:22:12.056Z,308.83
2022-08-25T01:24:47.189Z,315.45
2022-08-25T01:27:14.007Z,311.50
2022-08-25T01:29:41.384Z,309.90
2022-08-25T01:32:12.136Z,305.83
2022-08-25T01:34:41.473Z,306.35
2022-08-25T01:37:09.675Z,307.88
2022-08-25T01:39:41.693Z,301.85
2022-08-25T01:42:11.481Z,300.92
2022-08-25T01:44:41.723Z,304.77
2022-08-25T01:47:08.493Z,299.17
2022-08-25T01:49:35.312Z,303.10
2022-08-25T01:52:06.302Z,309.30
2022-08-25T01:54:32.945Z,310.17
2022-08-25T01:56:59.590Z,308.90
2022-08-25T01:59:27.191Z,312.15
2022-08-25T02:02:00.207Z,309.60
2022-08-25T02:04:32.237Z,300.70
2022-08-25T02:07:05.372Z,304.52
2022-08-25T02:09:33.035Z,309.20
2022-08-25T02:12:00.052Z,309.90
2022-08-25T02:14:28.532Z,305.70
2022-08-25T02:16:55.661Z,309.15
2022-08-25T02:19:24.425Z,308.70
2022-08-25T02:21:51.938Z,309.20
2022-08-25T02:24:19.032Z,309.13
2022-08-25T02:26:45.751Z,310.88
2022-08-25T02:29:12.519Z,311.48
2022-08-25T02:31:39.582Z,316.55
2022-08-25T02:34:07.242Z,316.88
2022-08-25T02:36:34.550Z,322.20
2022-08-25T02:39:02.933Z,316.42
2022-08-25T02:41:31.815Z,314.53
2022-08-25T02:44:03.037Z,301.08
2022-08-25T02:46:29.791Z,319.97
2022-08-25T02:48:57.336Z,322.40
2022-08-25T02:51:25.406Z,313.17
2022-08-25T02:53:52.351Z,313.48
2022-08-25T02:56:19.969Z,309.85
2022-08-25T02:58:47.479Z,316.08
2022-08-25T03:01:15.722Z,313.05
2022-08-25T03:03:45.815Z,311.08
2022-08-25T03:06:14.789Z,312.33
2022-08-25T03:08:43.043Z,307.42
2022-08-25T03:11:10.092Z,316.75
2022-08-25T03:13:37.633Z,317.08
2022-08-25T03:16:11.066Z,303.90
2022-08-25T03:18:40.818Z,310.27
2022-08-25T03:21:08.223Z,296.80
2022-08-25T03:23:35.204Z,299.73
2022-08-25T03:26:20.574Z,305.50
2022-08-25T03:28:47.289Z,299.02
2022-08-25T03:31:13.974Z,291.15
2022-08-25T03:33:40.585Z,296.60
2022-08-25T03:36:08.559Z,291.23
2022-08-25T03:38:38.169Z,292.88
2022-08-25T03:41:16.788Z,294.25
2022-08-25T03:43:44.146Z,287.45
2022-08-25T03:46:19.295Z,285.92
2022-08-25T03:48:46.299Z,291.20
2022-08-25T03:51:13.922Z,288.73
2022-08-25T03:53:40.529Z,280.77
2022-08-25T03:56:07.187Z,274.90
2022-08-25T03:58:33.929Z,276.20
2022-08-25T04:01:00.752Z,288.98
2022-08-25T04:03:27.501Z,274.17
2022-08-25T04:05:54.222Z,280.50
2022-08-25T04:08:23.198Z,283.02
2022-08-25T04:10:49.878Z,284.45
2022-08-25T04:13:16.585Z,288.75
2022-08-25T04:15:43.932Z,284.58
2022-08-25T04:18:11.591Z,286.58
2022-08-25T04:20:38.343Z,285.85
2022-08-25T04:23:05.105Z,292.55
2022-08-25T04:25:31.779Z,296.13
2022-08-25T04:27:58.557Z,299.23
2022-08-25T04:30:25.239Z,289.85
2022-08-25T04:32:51.825Z,292.45
2022-08-25T04:35:18.468Z,295.40
2022-08-25T04:37:48.052Z,291.10
2022-08-25T04:40:14.752Z,289.83
2022-08-25T04:42:41.418Z,288.83
2022-08-25T04:45:08.374Z,282.70
2022-08-25T04:47:39.024Z,293.42
2022-08-25T04:50:07.297Z,292.42
2022-08-25T04:52:33.966Z,285.77
2022-08-25T04:55:00.678Z,280.02
2022-08-25T04:57:27.891Z,286.00
2022-08-25T04:59:55.578Z,296.37
2022-08-25T05:02:22.838Z,276.58
2022-08-25T05:04:49.542Z,287.63
2022-08-25T05:07:16.208Z,297.42
2022-08-25T05:09:42.894Z,300.58
2022-08-25T05:12:09.634Z,303.02
2022-08-25T05:14:38.591Z,306.85
2022-08-25T05:17:06.885Z,309.48
2022-08-25T05:19:33.698Z,304.15
2022-08-25T05:22:01.150Z,303.35
2022-08-25T05:24:28.122Z,330.27
2022-08-25T05:26:55.240Z,323.55
2022-08-25T05:29:22.145Z,321.63
2022-08-25T05:31:50.761Z,323.95
2022-08-25T05:34:19.384Z,310.52
2022-08-25T05:36:46.474Z,298.08
2022-08-25T05:39:13.236Z,298.83
2022-08-25T05:41:40.680Z,315.67
2022-08-25T05:44:07.808Z,309.40
2022-08-25T05:46:34.472Z,295.60
2022-08-25T05:49:02.014Z,312.13
2022-08-25T05:51:28.942Z,297.80
2022-08-25T05:53:55.688Z,298.35
2022-08-25T05:56:22.269Z,305.45
2022-08-25T05:58:49.091Z,291.48
2022-08-25T06:01:40.284Z,298.25
2022-08-25T06:04:10.574Z,302.08
2022-08-25T06:06:38.639Z,294.00
2022-08-25T06:09:06.866Z,295.48
2022-08-25T06:11:33.457Z,298.57
2022-08-25T06:14:00.147Z,292.77
2022-08-25T06:16:26.875Z,304.88
2022-08-25T06:18:55.380Z,301.52
2022-08-25T06:21:22.216Z,299.52
2022-08-25T06:23:49.280Z,310.95
2022-08-25T06:26:21.186Z,306.83
2022-08-25T06:28:52.217Z,297.95
2022-08-25T06:31:20.467Z,308.73
2022-08-25T06:33:47.194Z,314.85
2022-08-25T06:36:15.244Z,311.65
2022-08-25T06:38:41.902Z,304.17
2022-08-25T06:41:12.635Z,312.70
2022-08-25T06:43:45.040Z,296.83
2022-08-25T06:46:17.657Z,298.83
2022-08-25T06:48:44.387Z,300.92
2022-08-25T06:51:15.793Z,298.95
2022-08-25T06:53:43.723Z,288.33
2022-08-25T06:56:11.130Z,296.52
2022-08-25T06:58:38.932Z,292.77
2022-08-25T07:01:26.231Z,275.10
2022-08-25T07:03:58.137Z,288.83
2022-08-25T07:06:29.081Z,277.73
2022-08-25T07:08:55.715Z,278.38
2022-08-25T07:11:22.416Z,285.20
2022-08-25T07:13:50.434Z,279.42
2022-08-25T07:16:19.217Z,282.23
2022-08-25T07:18:47.449Z,273.10
2022-08-25T07:21:15.095Z,269.47
2022-08-25T07:23:42.040Z,271.65
2022-08-25T07:29:12.428Z,244.55
2022-08-25T07:31:39.332Z,249.68
2022-08-25T07:34:25.847Z,248.03
2022-08-25T07:36:53.809Z,243.82
2022-08-25T07:39:21.988Z,250.20
2022-08-25T07:41:52.197Z,249.37
2022-08-25T07:44:20.040Z,241.02
2022-08-25T07:46:46.675Z,234.40
2022-08-25T07:49:16.777Z,207.32
2022-08-25T07:52:04.061Z,199.73
2022-08-25T07:54:34.492Z,196.95
2022-08-25T07:57:05.604Z,186.27
2022-08-25T07:59:39.350Z,171.18
2022-08-25T08:02:16.015Z,173.10
2022-08-25T08:04:49.627Z,166.32
2022-08-25T08:07:18.860Z,137.10
2022-08-25T08:09:46.128Z,128.07
2022-08-25T08:12:12.865Z,124.53
2022-08-25T08:14:44.893Z,104.88
2022-08-25T08:17:12.993Z,101.20
2022-08-25T08:19:44.904Z,89.72
2022-08-25T08:22:15.400Z,86.90
2022-08-25T08:24:54.500Z,75.38
2022-08-25T08:27:22.677Z,58.53
2022-08-25T08:29:49.588Z,49.47
2022-08-25T08:32:17.921Z,41.53
2022-08-25T08:34:46.933Z,35.25
2022-08-25T08:37:21.984Z,31.73
2022-08-25T08:39:51.202Z,27.35
2022-08-25T08:42:56.059Z,25.60
2022-08-25T08:45:35.660Z,12.57
2022-08-25T08:48:34.770Z,12.23
2022-08-25T08:51:01.434Z,7.90
2022-08-25T08:53:57.370Z,4.45
2022-08-25T08:56:45.337Z,5.35
2022-08-25T08:59:22.579Z,4.07
2022-08-25T09:02:02.606Z,3.67
2022-08-25T09:04:35.025Z,4.00
2022-08-25T09:07:07.647Z,5.60
2022-08-25T09:09:40.045Z,4.93
2022-08-25T09:12:19.695Z,5.55
2022-08-25T09:15:12.807Z,2.90
2022-08-25T09:18:00.993Z,5.10
2022-08-25T09:20:40.000Z,11.05
2022-08-25T09:23:42.259Z,4.68
2022-08-25T09:26:30.808Z,4.30
2022-08-25T09:29:17.046Z,4.32
2022-08-25T09:31:44.922Z,3.38
2022-08-25T09:34:16.629Z,7.68
2022-08-25T09:36:43.298Z,5.22
2022-08-25T09:39:10.058Z,4.25
2022-08-25T09:41:47.598Z,5.68
2022-08-25T09:44:24.046Z,5.15
2022-08-25T09:47:03.628Z,5.63
2022-08-25T09:49:37.797Z,9.75
2022-08-25T09:52:25.339Z,4.20
2022-08-25T09:54:54.049Z,4.75
2022-08-25T09:57:33.970Z,4.53
2022-08-25T10:00:22.179Z,5.50
2022-08-25T10:03:06.779Z,4.50
2022-08-25T10:05:41.560Z,3.88
2022-08-25T10:08:16.353Z,5.35
2022-08-25T10:10:54.950Z,3.90
2022-08-25T10:13:32.169Z,3.63
2022-08-25T10:16:36.141Z,7.95
2022-08-25T10:19:26.294Z,4.35
2022-08-25T10:22:11.036Z,4.10
2022-08-25T10:24:41.030Z,9.00
2022-08-25T10:27:31.648Z,4.10
2022-08-25T10:30:07.611Z,3.83
2022-08-25T10:32:55.978Z,3.78
2022-08-25T10:35:31.327Z,4.72
2022-08-25T10:38:07.159Z,4.65
2022-08-25T10:40:57.396Z,4.35
2022-08-25T10:43:41.450Z,4.87
2022-08-25T10:46:31.557Z,6.75
2022-08-25T10:49:12.667Z,5.70
2022-08-25T10:51:58.339Z,7.55
2022-08-25T10:54:53.395Z,6.68
2022-08-25T10:57:40.259Z,4.28
2022-08-25T11:00:33.333Z,4.60
2022-08-25T11:03:12.530Z,6.47
2022-08-25T11:05:59.096Z,8.18
2022-08-25T11:08:40.100Z,8.80
2022-08-25T11:11:24.841Z,9.60
2022-08-25T11:14:05.712Z,4.40
2022-08-25T11:16:48.508Z,5.45
2022-08-25T11:19:38.897Z,5.13
2022-08-25T11:22:23.850Z,5.00
2022-08-25T11:25:07.574Z,7.18
2022-08-25T11:27:44.056Z,6.00
2022-08-25T11:30:15.173Z,3.60
2022-08-25T11:32:47.532Z,4.20
2022-08-25T11:35:18.204Z,3.97
2022-08-25T11:38:16.201Z,3.08
2022-08-25T11:40:45.649Z,3.47
2022-08-25T11:43:40.559Z,4.30
2022-08-25T11:46:34.803Z,3.72
2022-08-25T11:49:37.464Z,5.85
2022-08-25T11:52:30.800Z,5.13
2022-08-25T11:55:22.769Z,4.40
2022-08-25T11:57:53.632Z,4.90
2022-08-25T12:00:42.218Z,3.17
2022-08-25T12:03:36.569Z,4.70
2022-08-25T12:06:36.728Z,4.72
2022-08-25T12:09:03.687Z,8.57
2022-08-25T12:11:42.247Z,4.05
2022-08-25T12:14:28.290Z,2.55
2022-08-25T12:16:55.161Z,5.50
2022-08-25T12:19:34.188Z,4.45
2022-08-25T12:22:04.183Z,5.35
2022-08-25T12:24:48.081Z,4.35
2022-08-25T12:27:24.702Z,3.33
2022-08-25T12:30:05.565Z,2.95
2022-08-25T12:32:50.564Z,4.13
2022-08-25T12:35:54.273Z,3.25
2022-08-25T12:38:45.449Z,3.72
2022-08-25T12:41:21.991Z,4.88
2022-08-25T12:43:54.344Z,7.70
2022-08-25T12:46:25.703Z,3.50
2022-08-25T12:49:11.515Z,7.88
2022-08-25T12:51:58.993Z,4.43
2022-08-25T12:54:37.949Z,5.93
2022-08-25T12:57:25.070Z,3.53
2022-08-25T12:59:58.758Z,3.85
2022-08-25T13:02:52.080Z,2.63
2022-08-25T13:05:40.107Z,4.85
2022-08-25T13:08:06.901Z,5.25
2022-08-25T13:10:54.196Z,3.65
2022-08-25T13:13:39.597Z,6.90
2022-08-25T13:16:15.572Z,9.18
2022-08-25T13:18:42.386Z,5.28
2022-08-25T13:21:18.537Z,3.83
2022-08-25T13:23:54.298Z,4.82
2022-08-25T13:26:48.385Z,7.93
2022-08-25T13:29:25.558Z,3.97
2022-08-25T13:31:54.576Z,5.25
2022-08-25T13:34:34.360Z,6.53
2022-08-25T13:37:30.310Z,5.15
2022-08-25T13:40:17.952Z,6.67
2022-08-25T13:42:55.844Z,5.82
2022-08-25T13:45:31.853Z,3.17
2022-08-25T13:47:58.848Z,6.45
2022-08-25T13:50:26.489Z,3.50
2022-08-25T13:53:11.619Z,7.80
2022-08-25T13:55:52.277Z,3.95
2022-08-25T13:58:24.841Z,3.97
2022-08-25T14:01:49.065Z,4.57
2022-08-25T14:04:39.638Z,6.82
2022-08-25T14:07:25.321Z,3.08
2022-08-25T14:09:55.181Z,3.40
2022-08-25T14:12:33.626Z,4.80
2022-08-25T14:15:09.136Z,7.15
2022-08-25T14:17:40.249Z,4.85
2022-08-25T14:20:19.225Z,5.65
2022-08-25T14:22:46.144Z,4.78
2022-08-25T14:25:13.319Z,7.63
2022-08-25T14:28:06.684Z,4.40
2022-08-25T14:30:34.347Z,3.38
2022-08-25T14:33:03.207Z,4.50
2022-08-25T14:35:30.293Z,4.95
2022-08-25T14:37:58.921Z,5.43
2022-08-25T14:40:25.746Z,3.95
2022-08-25T14:42:55.187Z,3.13
2022-08-25T14:45:21.855Z,4.78
2022-08-25T14:47:50.164Z,4.38
2022-08-25T14:50:20.088Z,6.20
2022-08-25T14:52:48.323Z,6.50
2022-08-25T14:55:31.196Z,5.32
2022-08-25T14:57:58.957Z,3.83
2022-08-25T15:00:30.656Z,4.43
2022-08-25T15:03:00.983Z,5.82
2022-08-25T15:05:30.129Z,5.63
2022-08-25T15:08:16.274Z,5.50
2022-08-25T15:10:43.406Z,3.87
2022-08-25T15:13:10.722Z,5.60
2022-08-25T15:15:52.362Z,6.47
2022-08-25T15:18:21.100Z,5.45
2022-08-25T15:20:50.129Z,4.68
2022-08-25T15:23:20.565Z,4.67
2022-08-25T15:25:49.011Z,4.32
2022-08-25T15:28:22.475Z,6.40
2022-08-25T15:30:50.292Z,6.57
2022-08-25T15:33:17.563Z,4.57
2022-08-25T15:35:45.106Z,6.97
2022-08-25T15:38:12.584Z,7.20
2022-08-25T15:40:39.911Z,5.30
2022-08-25T15:43:06.918Z,5.25
2022-08-25T15:45:35.951Z,3.50
2022-08-25T15:48:03.634Z,6.20
2022-08-25T15:50:30.356Z,6.57
2022-08-25T15:52:57.879Z,5.05
2022-08-25T15:55:24.800Z,6.33
2022-08-25T15:57:51.406Z,9.88
2022-08-25T16:00:19.365Z,7.13
2022-08-25T16:02:48.215Z,6.80
2022-08-25T16:05:16.518Z,6.88
2022-08-25T16:07:46.125Z,7.88
2022-08-25T16:10:18.742Z,7.40
2022-08-25T16:12:45.836Z,7.72
2022-08-25T16:15:12.663Z,7.35
2022-08-25T16:17:40.691Z,8.50
2022-08-25T16:20:13.674Z,6.37
2022-08-25T16:22:41.370Z,6.45
2022-08-25T16:25:08.699Z,5.68
2022-08-25T16:27:38.666Z,9.48
2022-08-25T16:30:07.789Z,5.47
2022-08-25T16:32:34.951Z,6.75
2022-08-25T16:35:03.375Z,5.17
2022-08-25T16:37:30.473Z,6.30
2022-08-25T16:39:57.559Z,5.70
2022-08-25T16:42:24.380Z,7.33
2022-08-25T16:44:53.916Z,6.22
2022-08-25T16:47:20.907Z,7.75
2022-08-25T16:49:54.020Z,4.72
2022-08-25T16:52:40.678Z,5.40
2022-08-25T16:55:13.688Z,4.95
2022-08-25T16:57:43.879Z,6.18
2022-08-25T17:00:13.772Z,5.70
2022-08-25T17:02:41.856Z,5.55
2022-08-25T17:05:11.318Z,7.65
2022-08-25T17:07:39.504Z,5.37
2022-08-25T17:10:07.240Z,6.03
2022-08-25T17:12:41.037Z,6.25
2022-08-25T17:15:07.898Z,7.00
2022-08-25T17:17:39.062Z,9.38
2022-08-25T17:20:06.482Z,8.05
2022-08-25T17:22:33.264Z,7.25
2022-08-25T17:25:00.842Z,5.47
2022-08-25T17:27:28.290Z,6.38
2022-08-25T17:29:55.913Z,7.35
2022-08-25T17:32:28.950Z,10.10
2022-08-25T17:34:57.737Z,5.45
2022-08-25T17:37:24.613Z,6.70
2022-08-25T17:40:02.488Z,8.65
2022-08-25T17:42:30.572Z,8.05
2022-08-25T17:44:58.045Z,5.57
2022-08-25T17:47:24.703Z,8.00
2022-08-25T17:49:51.296Z,7.73
2022-08-25T17:52:17.973Z,7.25
2022-08-25T17:54:48.612Z,14.10
2022-08-25T17:57:16.084Z,10.00
2022-08-25T17:59:42.889Z,13.07
2022-08-25T18:02:09.796Z,13.77
2022-08-25T18:04:38.047Z,16.30
2022-08-25T18:07:05.170Z,17.35
2022-08-25T18:09:31.805Z,21.23
2022-08-25T18:11:58.424Z,23.27
2022-08-25T18:14:25.765Z,26.35
2022-08-25T18:16:56.077Z,28.25
2022-08-25T18:19:25.729Z,34.20
2022-08-25T18:21:52.659Z,42.85
2022-08-25T18:24:19.402Z,51.40
2022-08-25T18:26:46.835Z,62.53
2022-08-25T18:29:13.512Z,71.97
2022-08-25T18:31:42.456Z,81.90
2022-08-25T18:34:11.602Z,91.32
2022-08-25T18:36:40.338Z,106.68
2022-08-25T18:39:26.214Z,116.03
2022-08-25T18:41:54.226Z,127.15
2022-08-25T18:44:21.563Z,130.65
2022-08-25T18:46:48.505Z,139.43
2022-08-25T18:49:17.124Z,147.47
2022-08-25T18:51:48.257Z,154.18
2022-08-25T18:54:23.353Z,161.40
2022-08-25T18:56:52.339Z,172.77
2022-08-25T18:59:19.753Z,174.25
2022-08-25T19:01:50.452Z,171.48
2022-08-25T19:04:17.248Z,180.88
2022-08-25T19:06:44.090Z,183.90
2022-08-25T19:09:11.315Z,191.80
2022-08-25T19:11:38.319Z,188.35
2022-08-25T19:14:12.159Z,193.63
2022-08-25T19:16:42.430Z,201.80
2022-08-25T19:19:13.212Z,194.43
2022-08-25T19:21:41.218Z,206.45
2022-08-25T19:24:09.178Z,201.43
2022-08-25T19:26:36.491Z,205.93
2022-08-25T19:29:08.974Z,210.55
2022-08-25T19:31:37.184Z,206.75
2022-08-25T19:34:07.496Z,218.25
2022-08-25T19:36:34.237Z,228.27
2022-08-25T19:39:01.517Z,232.20
2022-08-25T19:41:32.882Z,236.63
2022-08-25T19:44:02.807Z,229.70
2022-08-25T19:46:35.802Z,237.47
2022-08-25T19:49:12.047Z,226.60
2022-08-25T19:51:44.359Z,224.60
2022-08-25T19:54:14.066Z,225.38
2022-08-25T19:56:43.941Z,224.80
2022-08-25T19:59:40.630Z,236.88
2022-08-25T20:02:16.206Z,233.07
2022-08-25T20:04:49.166Z,242.73
2022-08-25T20:07:21.167Z,239.30
2022-08-25T20:09:48.595Z,234.70
2022-08-25T20:12:20.205Z,240.18
2022-08-25T20:14:48.857Z,244.13
2022-08-25T20:17:24.805Z,251.65
2022-08-25T20:20:00.309Z,257.50
2022-08-25T20:22:31.888Z,253.77
2022-08-25T20:25:13.075Z,264.80
2022-08-25T20:27:43.808Z,262.50
2022-08-25T20:30:16.539Z,265.00
2022-08-25T20:32:44.141Z,253.00
2022-08-25T20:35:15.287Z,249.55
2022-08-25T20:37:44.425Z,256.80
2022-08-25T20:40:14.455Z,258.88
2022-08-25T20:42:43.426Z,267.63
2022-08-25T20:45:12.791Z,274.77
2022-08-25T20:47:39.700Z,288.55
2022-08-25T20:50:09.011Z,276.57
2022-08-25T20:52:37.366Z,271.98
2022-08-25T20:55:09.894Z,284.05
2022-08-25T20:57:36.991Z,277.90
2022-08-25T21:00:05.499Z,276.92
2022-08-25T21:02:32.162Z,279.98
2022-08-25T21:05:05.239Z,283.10
2022-08-25T21:07:32.848Z,292.10
2022-08-25T21:10:10.707Z,295.33
2022-08-25T21:12:41.909Z,286.50
2022-08-25T21:15:10.450Z,281.02
2022-08-25T21:17:37.665Z,288.27
2022-08-25T21:20:07.911Z,289.08
2022-08-25T21:22:35.581Z,286.35
2022-08-25T21:25:04.516Z,289.75
2022-08-25T21:27:31.303Z,288.20
2022-08-25T21:29:57.976Z,286.52
2022-08-25T21:32:24.701Z,294.80
2022-08-25T21:34:55.549Z,294.77
2022-08-25T21:37:23.717Z,296.95
2022-08-25T21:39:51.104Z,301.98
2022-08-25T21:42:22.518Z,302.42
2022-08-25T21:44:50.433Z,306.23
2022-08-25T21:47:21.218Z,301.80
2022-08-25T21:49:49.034Z,311.65
2022-08-25T21:52:15.908Z,316.10
2022-08-25T21:54:43.871Z,314.08
2022-08-25T21:57:10.636Z,311.95
2022-08-25T21:59:40.493Z,311.20
2022-08-25T22:02:10.566Z,304.97
2022-08-25T22:04:41.384Z,307.08
2022-08-25T22:07:09.989Z,322.10
2022-08-25T22:09:39.103Z,322.83
2022-08-25T22:12:12.028Z,320.27
2022-08-25T22:14:39.422Z,318.73
2022-08-25T22:17:13.920Z,323.40
2022-08-25T22:19:45.436Z,327.73
2022-08-25T22:22:12.430Z,315.15
2022-08-25T22:24:39.056Z,321.95
2022-08-25T22:27:15.461Z,323.02
2022-08-25T22:29:44.689Z,312.52
2022-08-25T22:32:13.505Z,309.88
2022-08-25T22:34:40.645Z,307.33
2022-08-25T22:37:10.132Z,307.50
2022-08-25T22:39:40.269Z,307.10
2022-08-25T22:42:09.767Z,317.13
2022-08-25T22:44:40.565Z,308.55
2022-08-25T22:47:08.538Z,307.38
2022-08-25T22:49:35.730Z,304.23
2022-08-25T22:52:02.857Z,312.83
2022-08-25T22:54:29.896Z,307.05
2022-08-25T22:56:56.587Z,324.38
2022-08-25T22:59:23.251Z,318.98
2022-08-25T23:01:52.606Z,324.25
2022-08-25T23:04:21.374Z,327.73
2022-08-25T23:06:49.384Z,327.65
2022-08-25T23:09:16.545Z,327.83
2022-08-25T23:11:43.185Z,323.67
2022-08-25T23:14:13.127Z,329.08
2022-08-25T23:16:41.857Z,329.02
2022-08-25T23:19:10.938Z,323.55
2022-08-25T23:21:58.897Z,327.10
2022-08-25T23:24:29.363Z,328.88
2022-08-25T23:27:02.038Z,326.67
2022-08-25T23:29:29.216Z,322.60
2022-08-25T23:31:57.567Z,327.90
2022-08-25T23:34:25.014Z,323.27
2022-08-25T23:36:51.878Z,316.15
2022-08-25T23:39:18.647Z,325.48
2022-08-25T23:41:49.414Z,324.43
2022-08-25T23:44:17.224Z,315.33
2022-08-25T23:46:45.279Z,318.65
2022-08-25T23:49:14.687Z,315.60
2022-08-25T23:51:47.274Z,316.00
2022-08-25T23:54:14.639Z,310.40
2022-08-25T23:56:52.047Z,318.20
2022-08-25T23:59:24.306Z,315.00
